Jefferson, Maine
Current Conditions -  °F | °C
As of 4:53 AM on Saturday 20 Dec 2014 (Local Time) from KAUG Reporting Station
Clear Clear  
Wind Chill: 11°   Ceiling: Unl
Heat Index: 20°   Visibility: 10mi
Dew Point: 13°   Wind: 7mph
Humidity: 74%   Direction: 350°N
Pressure: 30.23"   Gusts: NA
Location:  44.21°N, 69.45°W
Report Text: KAUG 200953Z AUTO 35006KT 10SM CLR M07/M11 A3023 RMK AO2 SLP245 T10671106
Loading
Personal Weather Stations






























Interactive Weather Map New forecast layout! Learn more

10-Day Weather Forecast

Advertisements
Track Severe Weather on mobile